Time;durP1;ratioP1;P1;durP2;ratioP2;P2;SDS_P1;SDS_P2;PMS_P1;PMS_P2;Temp;Humidity;BMP_temperature;BMP_pressure;BME280_temperature;BME280_humidity;BME280_pressure;Samples;Min_cycle;Max_cycle;Signal;HPM_P1;HPM_P2
2023/04/08 00:00:16;;;;;;;15.38;9.43;;;;;;;6.09;100.00;97517.34;5015038;28;20533;-59
2023/04/08 00:02:43;;;;;;;14.45;8.98;;;;;;;6.02;100.00;97515.75;5018148;28;20415;-56
2023/04/08 00:05:09;;;;;;;16.50;9.77;;;;;;;6.02;100.00;97513.88;5018170;28;20050;-58
2023/04/08 00:07:36;;;;;;;15.95;10.18;;;;;;;5.97;100.00;97522.59;5011865;28;20124;-58
2023/04/08 00:10:03;;;;;;;15.68;10.00;;;;;;;6.02;100.00;97518.44;5020253;28;20048;-58
2023/04/08 00:12:30;;;;;;;17.10;10.10;;;;;;;6.06;100.00;97525.03;5020531;28;20045;-57
2023/04/08 00:14:56;;;;;;;15.52;9.65;;;;;;;6.10;100.00;97521.72;5036001;28;20099;-55
2023/04/08 00:17:23;;;;;;;16.95;9.45;;;;;;;6.11;100.00;97525.22;5019554;28;20060;-58
2023/04/08 00:19:50;;;;;;;15.10;9.18;;;;;;;6.16;100.00;97527.25;5022904;28;20061;-59
2023/04/08 00:22:17;;;;;;;15.35;9.63;;;;;;;6.24;100.00;97518.91;5024258;28;20069;-58
2023/04/08 00:24:43;;;;;;;13.90;9.45;;;;;;;6.20;100.00;97525.78;5030321;28;20052;-59
2023/04/08 00:27:10;;;;;;;14.80;9.25;;;;;;;6.12;100.00;97529.56;5031338;28;20071;-58
2023/04/08 00:29:36;;;;;;;14.95;9.38;;;;;;;6.18;100.00;97525.16;5026708;28;20107;-57
2023/04/08 00:32:03;;;;;;;16.58;10.05;;;;;;;6.19;100.00;97524.13;5022181;28;20056;-59
2023/04/08 00:34:30;;;;;;;15.63;9.77;;;;;;;6.28;100.00;97517.44;5020297;28;20038;-59
2023/04/08 00:36:57;;;;;;;17.13;9.80;;;;;;;6.32;100.00;97526.69;5021300;28;20049;-56
2023/04/08 00:39:23;;;;;;;16.63;9.55;;;;;;;6.20;100.00;97525.78;5026253;28;20633;-58
2023/04/08 00:41:50;;;;;;;14.23;8.73;;;;;;;6.16;100.00;97520.00;5020408;28;20048;-59
2023/04/08 00:44:16;;;;;;;14.75;8.18;;;;;;;6.27;100.00;97521.16;5020568;28;20045;-58
2023/04/08 00:46:43;;;;;;;14.23;8.80;;;;;;;6.26;100.00;97522.19;5026442;28;20068;-59
2023/04/08 00:49:10;;;;;;;11.50;7.63;;;;;;;6.22;100.00;97529.88;5028009;28;20049;-59
2023/04/08 00:51:36;;;;;;;14.85;8.63;;;;;;;6.04;100.00;97527.16;5028736;28;20048;-59
2023/04/08 00:54:04;;;;;;;15.73;9.02;;;;;;;6.07;100.00;97537.44;5026881;28;20034;-55
2023/04/08 00:56:32;;;;;;;15.10;9.52;;;;;;;5.96;100.00;97529.03;5028792;28;20049;-59
2023/04/08 00:59:00;;;;;;;14.43;9.30;;;;;;;5.86;100.00;97537.56;5036542;28;20107;-59
2023/04/08 01:01:52;;;;;;;16.95;10.15;;;;;;;5.83;100.00;97535.28;5023202;28;20048;-59
2023/04/08 01:04:34;;;;;;;17.58;9.77;;;;;;;5.91;100.00;97536.91;5026664;28;20144;-58
2023/04/08 01:07:16;;;;;;;21.63;10.88;;;;;;;5.99;100.00;97535.81;5024589;28;20474;-58
2023/04/08 01:09:45;;;;;;;;;;;;;;;5.94;100.00;97528.41;5039777;28;20136;-59
2023/04/08 01:12:19;;;;;;;16.52;9.90;;;;;;;6.04;100.00;97527.94;5017663;28;19921;-58
2023/04/08 01:14:47;;;;;;;18.35;10.05;;;;;;;6.04;100.00;97532.53;5024628;28;20065;-59
2023/04/08 01:17:18;;;;;;;19.20;11.52;;;;;;;5.88;100.00;97531.97;5023751;28;20132;-57
2023/04/08 01:19:46;;;;;;;19.65;11.73;;;;;;;5.94;100.00;97530.28;5026399;28;20124;-58
2023/04/08 01:22:45;;;;;;;18.73;13.18;;;;;;;5.85;100.00;97533.22;5032015;28;20759;-59
2023/04/08 01:25:16;;;;;;;23.58;12.60;;;;;;;5.88;100.00;97539.19;5026623;28;20520;-57
2023/04/08 01:27:43;;;;;;;24.48;12.45;;;;;;;5.96;100.00;97536.25;5024104;28;20541;-58
2023/04/08 01:30:10;;;;;;;20.63;12.70;;;;;;;5.99;100.00;97533.13;5021714;28;20128;-58
2023/04/08 01:32:38;;;;;;;19.88;12.10;;;;;;;6.01;100.00;97535.59;5026387;28;20069;-59
2023/04/08 01:35:06;;;;;;;22.42;12.13;;;;;;;5.92;100.00;97533.19;5033062;28;20128;-58
2023/04/08 01:37:34;;;;;;;20.52;11.63;;;;;;;5.85;100.00;97535.09;5024521;28;20048;-58
2023/04/08 01:40:02;;;;;;;23.10;11.65;;;;;;;5.88;100.00;97533.81;5038961;28;20103;-59
2023/04/08 01:42:28;;;;;;;23.63;12.02;;;;;;;5.92;100.00;97527.81;5023348;28;20049;-56
2023/04/08 01:44:58;;;;;;;23.80;10.90;;;;;;;6.01;100.00;97532.91;5026756;28;20532;-59
2023/04/08 01:47:25;;;;;;;20.40;11.57;;;;;;;5.83;100.00;97523.75;5032248;28;20048;-59
2023/04/08 01:49:52;;;;;;;19.42;11.25;;;;;;;5.78;100.00;97524.38;5012719;28;20042;-59
2023/04/08 01:52:19;;;;;;;20.58;12.05;;;;;;;5.75;100.00;97524.81;5031052;28;20052;-58
2023/04/08 01:54:46;;;;;;;18.85;10.15;;;;;;;5.82;100.00;97530.16;5019933;28;20040;-59
2023/04/08 01:57:27;;;;;;;19.58;11.18;;;;;;;5.73;100.00;97518.84;5033538;28;20710;-57
2023/04/08 02:00:00;;;;;;;22.17;11.27;;;;;;;5.69;100.00;97525.69;5023406;28;20048;-58
2023/04/08 02:02:28;;;;;;;20.20;11.00;;;;;;;5.69;100.00;97517.63;5019496;28;20041;-60
2023/04/08 02:04:57;;;;;;;22.40;11.35;;;;;;;5.72;100.00;97525.25;5017141;28;20044;-59
2023/04/08 02:07:23;;;;;;;25.17;11.50;;;;;;;5.61;100.00;97524.09;5031688;28;20106;-57
2023/04/08 02:09:50;;;;;;;21.52;11.93;;;;;;;5.56;100.00;97526.59;5035345;28;20037;-58
2023/04/08 02:12:17;;;;;;;21.20;10.77;;;;;;;5.64;100.00;97531.69;5028631;28;20045;-56
2023/04/08 02:14:43;;;;;;;23.60;11.38;;;;;;;5.58;100.00;97535.25;5027338;28;20029;-58
2023/04/08 02:17:23;;;;;;;22.73;11.68;;;;;;;5.55;100.00;97525.78;5021194;28;20103;-57
2023/04/08 02:19:51;;;;;;;20.65;11.13;;;;;;;5.52;100.00;97528.03;5027846;28;20077;-55
2023/04/08 02:22:54;;;;;;;25.25;10.75;;;;;;;5.53;100.00;97527.84;5023052;28;20041;-56
2023/04/08 02:25:23;;;;;;;20.55;10.95;;;;;;;5.64;100.00;97520.94;5021905;28;20048;-60
2023/04/08 02:27:51;;;;;;;18.88;10.38;;;;;;;5.56;100.00;97519.34;5019967;28;20069;-58
2023/04/08 02:30:19;;;;;;;20.00;10.07;;;;;;;5.46;100.00;97521.69;5018394;28;20049;-59
2023/04/08 02:32:47;;;;;;;21.50;10.40;;;;;;;5.37;100.00;97522.97;5023589;28;20067;-58
2023/04/08 02:35:15;;;;;;;22.23;10.98;;;;;;;5.26;100.00;97517.25;5033019;28;20049;-58
2023/04/08 02:37:42;;;;;;;24.83;11.35;;;;;;;5.23;100.00;97519.53;5026970;28;20038;-58
2023/04/08 02:40:29;;;;;;;21.13;10.77;;;;;;;5.19;100.00;97517.28;5032200;28;20587;-58
2023/04/08 02:42:56;;;;;;;21.75;11.32;;;;;;;5.16;100.00;97520.38;5017899;28;20057;-57
2023/04/08 02:45:30;;;;;;;19.30;11.23;;;;;;;5.16;100.00;97525.75;5023068;28;20045;-58
2023/04/08 02:47:58;;;;;;;20.52;11.23;;;;;;;5.16;100.00;97525.75;5026451;28;20045;-58
2023/04/08 02:50:26;;;;;;;23.23;11.15;;;;;;;5.25;100.00;97531.72;5033553;28;20049;-58
2023/04/08 02:52:52;;;;;;;22.70;12.05;;;;;;;5.21;100.00;97527.81;5025756;28;20068;-57
2023/04/08 02:55:19;;;;;;;17.60;10.63;;;;;;;5.13;100.00;97528.03;5020763;28;20057;-58
2023/04/08 02:57:47;;;;;;;19.73;10.63;;;;;;;5.19;100.00;97527.19;5023848;28;20555;-58
2023/04/08 03:00:14;;;;;;;18.23;10.27;;;;;;;5.26;100.00;97527.97;5024943;28;20046;-56
2023/04/08 03:02:41;;;;;;;20.90;10.25;;;;;;;5.33;100.00;97533.31;5029805;28;20071;-58
2023/04/08 03:05:10;;;;;;;20.90;10.95;;;;;;;5.29;100.00;97532.94;5026120;28;20050;-58
2023/04/08 03:07:37;;;;;;;23.55;11.52;;;;;;;5.37;100.00;97536.38;5032817;28;20217;-60
2023/04/08 03:10:05;;;;;;;19.60;11.10;;;;;;;5.39;100.00;97540.53;5017547;28;20084;-58
2023/04/08 03:12:31;;;;;;;24.10;11.30;;;;;;;5.33;100.00;97530.63;5023593;28;20065;-58
2023/04/08 03:14:59;;;;;;;17.73;10.02;;;;;;;5.36;100.00;97530.22;5029799;28;20028;-59
2023/04/08 03:17:25;;;;;;;21.15;9.93;;;;;;;5.33;100.00;97534.16;5022743;28;20049;-58
2023/04/08 03:19:52;;;;;;;17.65;9.80;;;;;;;5.40;100.00;97530.59;5033876;28;20041;-60
2023/04/08 03:22:18;;;;;;;22.23;10.50;;;;;;;5.43;100.00;97527.50;5031792;28;20043;-59
2023/04/08 03:24:45;;;;;;;20.27;10.00;;;;;;;5.48;100.00;97522.28;5026515;28;20037;-58
2023/04/08 03:27:11;;;;;;;20.05;10.95;;;;;;;5.38;100.00;97533.50;5026135;28;20049;-58
2023/04/08 03:29:38;;;;;;;18.15;10.13;;;;;;;5.41;100.00;97532.25;5027828;28;20084;-59
2023/04/08 03:32:05;;;;;;;19.75;10.18;;;;;;;5.37;100.00;97531.84;5025454;28;20113;-59
2023/04/08 03:34:33;;;;;;;20.08;9.43;;;;;;;5.40;100.00;97525.22;5025419;28;20124;-57
2023/04/08 03:37:00;;;;;;;19.48;10.30;;;;;;;5.45;100.00;97530.78;5025669;28;20049;-57
2023/04/08 03:39:27;;;;;;;16.95;10.23;;;;;;;5.33;100.00;97539.53;5033179;28;20533;-60
2023/04/08 03:41:53;;;;;;;20.58;10.73;;;;;;;5.34;100.00;97527.75;5017695;28;20044;-59
2023/04/08 03:44:20;;;;;;;19.38;10.73;;;;;;;5.31;100.00;97538.09;5036026;28;20560;-58
2023/04/08 03:46:46;;;;;;;19.33;10.30;;;;;;;5.25;100.00;97533.56;5023401;28;20076;-59
2023/04/08 03:49:13;;;;;;;25.77;11.77;;;;;;;5.20;100.00;97536.91;5021478;28;20045;-57
2023/04/08 03:51:39;;;;;;;21.17;11.65;;;;;;;5.27;100.00;97534.19;5028445;28;20509;-57
2023/04/08 03:54:06;;;;;;;23.80;13.07;;;;;;;5.26;100.00;97535.19;5027944;28;20033;-59
2023/04/08 03:56:33;;;;;;;29.30;13.75;;;;;;;5.32;100.00;97537.06;5024061;28;20133;-57
2023/04/08 03:58:59;;;;;;;24.30;13.00;;;;;;;5.31;100.00;97538.91;5029019;28;20075;-59
2023/04/08 04:01:26;;;;;;;23.42;11.68;;;;;;;5.36;100.00;97534.75;5033202;28;20063;-57
2023/04/08 04:03:52;;;;;;;26.13;12.85;;;;;;;5.30;100.00;97531.88;5015946;28;20045;-58
2023/04/08 04:06:19;;;;;;;26.88;13.38;;;;;;;5.33;100.00;97536.84;5030715;28;20041;-58
2023/04/08 04:08:45;;;;;;;21.13;11.93;;;;;;;5.42;100.00;97537.41;5022364;28;20095;-58
2023/04/08 04:11:12;;;;;;;24.25;13.45;;;;;;;5.48;100.00;97533.03;5029862;28;20045;-58
2023/04/08 04:13:38;;;;;;;23.88;13.18;;;;;;;5.43;100.00;97541.75;5021227;28;20073;-59
2023/04/08 04:16:05;;;;;;;21.45;12.20;;;;;;;5.47;100.00;97542.13;5025928;28;20653;-59
2023/04/08 04:18:32;;;;;;;25.67;13.68;;;;;;;5.40;100.00;97544.88;5016696;28;20069;-55
2023/04/08 04:20:58;;;;;;;25.30;15.35;;;;;;;5.32;100.00;97540.56;5022718;28;20064;-56
2023/04/08 04:23:25;;;;;;;24.30;13.60;;;;;;;5.32;100.00;97547.78;5019468;28;20120;-59
2023/04/08 04:25:51;;;;;;;25.42;13.93;;;;;;;5.36;100.00;97545.50;5020518;28;20135;-58
2023/04/08 04:28:17;;;;;;;25.50;14.27;;;;;;;5.32;100.00;97542.41;5021273;28;20100;-57
2023/04/08 04:30:45;;;;;;;25.67;14.68;;;;;;;5.39;100.00;97553.97;5020549;28;20104;-57
2023/04/08 04:33:11;;;;;;;25.95;14.40;;;;;;;5.46;100.00;97545.88;5018397;28;20209;-59
2023/04/08 04:35:39;;;;;;;23.67;13.65;;;;;;;5.52;100.00;97553.06;5021221;28;20042;-59
2023/04/08 04:38:11;;;;;;;26.65;14.50;;;;;;;5.53;100.00;97551.22;5027708;28;20042;-59
2023/04/08 04:40:38;;;;;;;21.85;12.98;;;;;;;5.37;100.00;97545.28;5021652;28;20034;-58
2023/04/08 04:43:04;;;;;;;24.75;14.32;;;;;;;5.44;100.00;97550.63;5033634;28;20053;-58
2023/04/08 04:45:31;;;;;;;25.70;12.60;;;;;;;5.42;100.00;97547.34;5020446;28;20040;-60
2023/04/08 04:47:57;;;;;;;20.30;11.77;;;;;;;5.38;100.00;97552.28;5032404;28;20044;-59
2023/04/08 04:50:24;;;;;;;17.67;11.13;;;;;;;5.43;100.00;97549.81;5022183;28;20431;-57
2023/04/08 04:52:50;;;;;;;18.45;11.48;;;;;;;5.27;100.00;97551.09;5022190;28;20523;-57
2023/04/08 04:55:17;;;;;;;20.10;12.32;;;;;;;5.27;100.00;97551.09;5033650;28;20052;-57
2023/04/08 04:57:43;;;;;;;20.60;12.82;;;;;;;5.27;100.00;97553.78;5031828;28;20044;-60
2023/04/08 05:00:11;;;;;;;21.48;11.57;;;;;;;5.23;100.00;97560.63;5026803;28;20090;-60
2023/04/08 05:02:37;;;;;;;21.05;12.85;;;;;;;5.12;100.00;97561.31;5029731;28;20691;-58
2023/04/08 05:05:04;;;;;;;20.50;12.52;;;;;;;5.06;100.00;97560.28;5032373;28;20068;-57
2023/04/08 05:07:35;;;;;;;23.65;13.25;;;;;;;5.04;100.00;97562.34;5026292;28;20060;-58
2023/04/08 05:10:03;;;;;;;22.55;13.20;;;;;;;5.01;100.00;97574.31;5034705;28;20435;-58
2023/04/08 05:12:30;;;;;;;22.92;13.82;;;;;;;5.05;100.00;97570.19;5022496;28;20037;-58
2023/04/08 05:15:01;;;;;;;23.50;13.68;;;;;;;5.03;100.00;97569.59;5025914;28;20041;-56
2023/04/08 05:17:27;;;;;;;24.40;13.40;;;;;;;5.03;100.00;97569.59;5024987;28;20050;-59
2023/04/08 05:19:54;;;;;;;23.65;13.52;;;;;;;5.05;100.00;97580.91;5023102;28;20516;-59
2023/04/08 05:22:20;;;;;;;23.90;14.10;;;;;;;5.04;100.00;97579.28;5025203;28;20052;-58
2023/04/08 05:24:47;;;;;;;22.77;12.25;;;;;;;5.03;100.00;97580.31;5026201;28;20049;-59
2023/04/08 05:27:14;;;;;;;24.20;12.93;;;;;;;5.04;100.00;97584.66;5022957;28;20045;-59
2023/04/08 05:29:41;;;;;;;21.95;12.68;;;;;;;5.08;100.00;97582.34;5025321;28;20120;-56
2023/04/08 05:32:08;;;;;;;23.88;13.23;;;;;;;5.11;100.00;97583.78;5024829;28;20046;-58
2023/04/08 05:34:34;;;;;;;24.70;14.57;;;;;;;5.10;100.00;97585.66;5030338;28;20045;-57
2023/04/08 05:37:01;;;;;;;21.67;12.88;;;;;;;5.05;100.00;97572.88;5030173;28;20048;-58
2023/04/08 05:39:27;;;;;;;22.10;12.68;;;;;;;4.99;100.00;97580.94;5031781;28;20087;-59
2023/04/08 05:41:54;;;;;;;23.20;12.50;;;;;;;4.99;100.00;97584.47;5033527;28;20037;-59
2023/04/08 05:44:20;;;;;;;19.27;12.75;;;;;;;5.00;100.00;97587.94;5022896;28;20099;-59
2023/04/08 05:46:47;;;;;;;23.35;12.98;;;;;;;4.93;100.00;97594.16;5025578;28;20124;-58
2023/04/08 05:49:14;;;;;;;20.73;12.35;;;;;;;4.97;100.00;97591.06;5032631;28;20068;-58
2023/04/08 05:51:41;;;;;;;24.98;13.77;;;;;;;5.04;100.00;97595.38;5025204;28;20048;-58
2023/04/08 05:54:07;;;;;;;24.67;12.25;;;;;;;5.11;100.00;97600.72;5027351;28;20043;-58
2023/04/08 05:56:34;;;;;;;21.52;12.25;;;;;;;5.21;100.00;97601.09;5015668;28;20584;-56
2023/04/08 05:59:01;;;;;;;22.52;12.20;;;;;;;5.31;100.00;97603.34;5023864;28;20052;-58
2023/04/08 06:01:27;;;;;;;20.33;12.15;;;;;;;5.36;100.00;97600.03;5025456;28;20064;-56
2023/04/08 06:03:57;;;;;;;20.90;10.75;;;;;;;5.40;100.00;97606.63;5030131;28;20056;-58
2023/04/08 06:06:26;;;;;;;19.50;10.93;;;;;;;5.44;100.00;97609.69;5017185;28;20055;-58
2023/04/08 06:08:53;;;;;;;23.38;12.50;;;;;;;5.40;100.00;97609.31;5017260;28;20551;-59
2023/04/08 06:11:19;;;;;;;20.25;12.18;;;;;;;5.42;100.00;97607.22;5021831;28;20512;-59
2023/04/08 06:13:46;;;;;;;20.98;11.32;;;;;;;5.49;100.00;97611.75;5023639;28;20072;-60
2023/04/08 06:16:16;;;;;;;18.75;10.82;;;;;;;5.47;100.00;97615.50;5020208;28;20129;-55
2023/04/08 06:18:46;;;;;;;18.52;11.10;;;;;;;5.40;100.00;97616.53;5026101;28;20120;-57
2023/04/08 06:21:12;;;;;;;19.08;10.63;;;;;;;5.34;100.00;97615.50;5026595;28;20471;-59
2023/04/08 06:23:39;;;;;;;18.08;10.00;;;;;;;5.40;100.00;97622.75;5028164;28;20047;-58
2023/04/08 06:26:06;;;;;;;15.70;8.93;;;;;;;5.50;100.00;97624.16;5023562;28;20564;-58
2023/04/08 06:28:32;;;;;;;16.35;9.32;;;;;;;5.62;100.00;97621.59;5018772;28;20227;-57
2023/04/08 06:30:59;;;;;;;17.20;8.93;;;;;;;5.73;100.00;97624.47;5024576;28;20050;-58
2023/04/08 06:33:25;;;;;;;13.75;8.40;;;;;;;5.84;100.00;97624.81;5021254;28;20053;-58
2023/04/08 06:36:03;;;;;;;14.82;9.50;;;;;;;6.02;100.00;97636.72;5025014;28;20045;-59
2023/04/08 06:38:30;;;;;;;17.75;9.85;;;;;;;6.03;100.00;97632.97;5026344;28;20041;-56
2023/04/08 06:41:07;;;;;;;17.33;10.10;;;;;;;6.01;100.00;97637.75;5024045;28;20045;-59
2023/04/08 06:43:36;;;;;;;16.35;8.43;;;;;;;6.11;100.00;97640.81;5022629;28;20045;-59
2023/04/08 06:46:03;;;;;;;14.38;8.52;;;;;;;6.14;100.00;97634.16;5023507;28;20564;-59
2023/04/08 06:48:30;;;;;;;16.75;8.88;;;;;;;6.11;100.00;97638.13;5026758;28;20042;-59
2023/04/08 06:50:57;;;;;;;17.02;8.88;;;;;;;6.27;100.00;97642.19;5027230;28;20041;-57
2023/04/08 06:53:25;;;;;;;12.32;7.82;;;;;;;6.29;100.00;97634.69;5023142;28;20179;-57
2023/04/08 06:55:51;;;;;;;18.27;8.98;;;;;;;6.54;100.00;97623.16;5023494;28;20063;-58
2023/04/08 06:58:18;;;;;;;13.20;7.30;;;;;;;6.43;100.00;97643.50;5022725;28;20121;-58
2023/04/08 07:00:44;;;;;;;14.10;7.82;;;;;;;6.50;100.00;97636.19;5023685;28;20038;-56
2023/04/08 07:03:11;;;;;;;13.90;8.00;;;;;;;6.47;100.00;97628.56;5017115;28;20045;-57
2023/04/08 07:05:38;;;;;;;14.43;9.07;;;;;;;6.42;100.00;97639.19;5016825;28;20072;-58
2023/04/08 07:08:05;;;;;;;12.20;7.93;;;;;;;6.50;100.00;97638.88;5023440;28;20045;-57
2023/04/08 07:10:33;;;;;;;14.93;8.40;;;;;;;6.59;100.00;97642.13;5023786;28;20069;-58
2023/04/08 07:13:00;;;;;;;15.30;7.70;;;;;;;6.52;100.00;97649.44;5023899;28;20053;-57
2023/04/08 07:15:27;;;;;;;15.68;7.82;;;;;;;6.72;100.00;97651.97;5016066;28;20121;-58
2023/04/08 07:17:55;;;;;;;13.18;7.82;;;;;;;6.80;100.00;97650.03;5021740;28;20045;-55
2023/04/08 07:20:22;;;;;;;11.43;7.30;;;;;;;6.94;100.00;97650.75;5016067;28;20111;-59
2023/04/08 07:22:49;;;;;;;13.40;8.18;;;;;;;6.93;100.00;97654.50;5026539;28;20464;-56
2023/04/08 07:25:15;;;;;;;12.85;7.95;;;;;;;6.95;100.00;97658.59;5029977;28;20052;-60
2023/04/08 07:27:42;;;;;;;12.38;8.13;;;;;;;6.88;100.00;97658.66;5031496;28;20552;-59
2023/04/08 07:30:09;;;;;;;12.57;8.07;;;;;;;6.73;100.00;97658.16;5031575;28;20052;-59
2023/04/08 07:32:36;;;;;;;15.73;8.73;;;;;;;6.87;100.00;97659.72;5027194;28;20178;-59
2023/04/08 07:35:02;;;;;;;14.88;8.68;;;;;;;6.96;100.00;97662.94;5020812;28;20766;-58
2023/04/08 07:37:29;;;;;;;14.73;8.57;;;;;;;7.00;100.00;97666.84;5027037;28;20532;-59
2023/04/08 07:39:55;;;;;;;15.95;9.55;;;;;;;7.04;100.00;97667.19;5026095;28;20099;-59
2023/04/08 07:42:22;;;;;;;14.90;9.18;;;;;;;7.12;100.00;97671.50;5022844;28;20100;-58
2023/04/08 07:44:48;;;;;;;14.77;9.20;;;;;;;6.87;100.00;97670.47;5019108;28;20112;-60
2023/04/08 07:47:15;;;;;;;15.27;9.52;;;;;;;6.94;100.00;97670.41;5023428;28;20422;-57
2023/04/08 07:49:41;;;;;;;13.90;8.63;;;;;;;7.07;100.00;97669.47;5019874;28;20088;-57
2023/04/08 07:52:08;;;;;;;13.75;8.32;;;;;;;7.13;100.00;97665.91;5016708;28;20096;-58
2023/04/08 07:54:34;;;;;;;13.25;8.57;;;;;;;7.26;100.00;97672.19;5031043;28;20115;-59
2023/04/08 07:57:01;;;;;;;13.65;8.38;;;;;;;7.46;100.00;97671.16;5027497;28;20045;-58
2023/04/08 07:59:28;;;;;;;14.88;9.07;;;;;;;7.28;100.00;97673.63;5028682;28;20063;-59
2023/04/08 08:01:54;;;;;;;13.02;8.73;;;;;;;7.41;100.00;97686.09;5022474;28;20042;-57
2023/04/08 08:04:24;;;;;;;13.02;8.77;;;;;;;7.51;100.00;97680.22;5028865;28;20049;-60
2023/04/08 08:06:51;;;;;;;14.45;9.30;;;;;;;7.25;100.00;97681.31;5028782;28;20040;-58
2023/04/08 08:09:17;;;;;;;12.55;8.75;;;;;;;7.29;100.00;97677.13;5024699;28;20045;-57
2023/04/08 08:11:44;;;;;;;14.27;9.23;;;;;;;7.41;100.00;97683.41;5027412;28;20124;-59
2023/04/08 08:14:12;;;;;;;14.27;9.40;;;;;;;7.10;100.00;97689.72;5032042;28;20049;-52
2023/04/08 08:16:39;;;;;;;14.60;8.75;;;;;;;7.45;100.00;97689.19;5022778;28;20033;-49
2023/04/08 08:19:06;;;;;;;13.15;8.95;;;;;;;7.67;100.00;97683.34;5020518;28;20050;-49
2023/04/08 08:21:35;;;;;;;15.50;9.57;;;;;;;7.79;98.03;97689.63;5022080;28;20045;-55
2023/04/08 08:24:02;;;;;;;14.35;9.50;;;;;;;7.79;99.29;97691.50;5018973;28;20527;-58
2023/04/08 08:26:29;;;;;;;13.50;9.38;;;;;;;7.66;100.00;97695.16;5016832;28;20037;-59
2023/04/08 08:28:55;;;;;;;16.15;9.38;;;;;;;7.80;100.00;97698.53;5024319;28;20045;-56
2023/04/08 08:31:22;;;;;;;14.20;8.57;;;;;;;8.07;96.53;97699.03;5023505;28;20096;-59
2023/04/08 08:33:48;;;;;;;14.75;10.27;;;;;;;8.04;96.83;97701.38;5018283;28;20125;-57
2023/04/08 08:36:16;;;;;;;16.92;9.90;;;;;;;8.04;96.97;97698.66;5016362;28;20287;-58
2023/04/08 08:38:43;;;;;;;13.93;9.45;;;;;;;7.86;98.34;97702.19;5017992;28;20049;-57
2023/04/08 08:41:10;;;;;;;15.07;10.10;;;;;;;7.70;97.96;97704.44;5022408;28;20088;-57
2023/04/08 08:43:37;;;;;;;14.20;9.85;;;;;;;7.78;97.52;97706.03;5020806;28;20041;-57
2023/04/08 08:46:08;;;;;;;15.70;9.18;;;;;;;7.94;96.13;97708.13;5024773;28;20547;-59
2023/04/08 08:48:37;;;;;;;14.82;9.77;;;;;;;8.14;95.36;97701.63;5019834;28;20050;-57
2023/04/08 08:51:08;;;;;;;16.00;10.52;;;;;;;8.07;94.15;97708.97;5024198;28;20518;-57
2023/04/08 08:53:35;;;;;;;16.48;10.07;;;;;;;7.86;94.23;97713.00;5029824;28;20132;-58
2023/04/08 08:56:03;;;;;;;17.90;10.60;;;;;;;7.64;97.40;97710.75;5025713;28;20048;-58
2023/04/08 08:58:32;;;;;;;16.27;10.40;;;;;;;8.05;96.80;97713.78;5028770;28;20441;-58
2023/04/08 09:00:59;;;;;;;16.42;11.38;;;;;;;8.33;96.82;97712.38;5028417;28;20057;-56
2023/04/08 09:03:27;;;;;;;14.40;9.45;;;;;;;8.64;94.44;97712.38;5027124;28;20511;-59
2023/04/08 09:05:59;;;;;;;17.80;9.90;;;;;;;8.73;91.37;97710.19;5028589;28;20033;-59
2023/04/08 09:08:25;;;;;;;;;;;;;;;8.63;92.72;97714.28;5024673;28;20467;-55
2023/04/08 09:10:53;;;;;;;15.60;9.23;;;;;;;8.62;89.64;97711.81;5028955;28;19932;-59
2023/04/08 09:13:22;;;;;;;16.13;10.27;;;;;;;8.50;87.52;97715.25;5034037;28;20055;-58
2023/04/08 09:16:03;;;;;;;13.38;9.25;;;;;;;8.90;84.40;97707.63;5028720;28;20537;-56
2023/04/08 09:18:31;;;;;;;;;;;;;;;8.96;87.73;97712.91;5026253;28;20134;-59
2023/04/08 09:21:02;;;;;;;16.42;10.55;;;;;;;8.96;83.66;97718.31;5031249;28;19967;-59
2023/04/08 09:23:51;;;;;;;13.75;9.95;;;;;;;8.86;85.03;97709.97;5023004;28;20053;-59
2023/04/08 09:26:26;;;;;;;16.88;11.00;;;;;;;8.59;85.11;97711.22;5012714;28;20045;-58
2023/04/08 09:29:04;;;;;;;14.93;10.68;;;;;;;8.77;85.12;97722.97;5031676;28;20436;-59
2023/04/08 09:31:57;;;;;;;12.85;9.55;;;;;;;8.75;82.23;97714.31;5015101;28;20305;-57
2023/04/08 09:34:26;;;;;;;13.40;9.90;;;;;;;8.88;82.12;97715.94;5025917;28;20196;-58
2023/04/08 09:36:54;;;;;;;16.58;10.98;;;;;;;8.96;80.67;97715.63;5027269;28;20128;-54
2023/04/08 09:39:21;;;;;;;14.90;10.43;;;;;;;8.98;81.78;97720.78;5028911;28;20069;-57
2023/04/08 09:41:49;;;;;;;14.80;10.32;;;;;;;9.07;79.26;97713.97;5024631;28;20057;-58
2023/04/08 09:44:19;;;;;;;16.38;10.65;;;;;;;9.06;80.73;97717.75;5022028;28;20045;-59
2023/04/08 09:46:49;;;;;;;15.07;10.88;;;;;;;9.32;79.47;97706.72;5024967;28;20077;-58
2023/04/08 09:49:32;;;;;;;14.05;10.30;;;;;;;9.58;75.31;97720.81;5024748;28;20052;-58
2023/04/08 09:52:14;;;;;;;15.45;10.27;;;;;;;9.72;76.09;97716.78;5019951;28;20053;-57
2023/04/08 09:54:55;;;;;;;13.90;9.45;;;;;;;9.72;76.55;97711.38;5019866;28;20056;-58
2023/04/08 09:57:32;;;;;;;14.03;9.80;;;;;;;9.38;75.87;97711.19;5029827;28;20167;-56
2023/04/08 10:00:11;;;;;;;16.75;9.63;;;;;;;9.69;76.78;97714.53;5035341;28;20055;-56
2023/04/08 10:03:12;;;;;;;14.82;9.85;;;;;;;9.87;73.31;97713.56;5030793;28;20052;-58
2023/04/08 10:05:41;;;;;;;14.60;10.13;;;;;;;10.19;72.26;97715.00;5028349;28;20033;-58
2023/04/08 10:08:07;;;;;;;13.38;9.35;;;;;;;9.99;75.54;97718.16;5023485;28;20103;-57
2023/04/08 10:10:37;;;;;;;14.77;10.73;;;;;;;9.79;73.27;97710.41;5035471;28;20516;-56
2023/04/08 10:13:05;;;;;;;14.82;10.60;;;;;;;9.72;74.28;97714.09;5033373;28;20057;-57
2023/04/08 10:15:33;;;;;;;14.10;10.10;;;;;;;9.99;75.82;97710.03;5034787;28;20047;-57
2023/04/08 10:18:05;;;;;;;13.80;9.98;;;;;;;10.19;72.50;97722.31;5026538;28;20132;-59
2023/04/08 10:20:34;;;;;;;14.05;9.95;;;;;;;10.42;71.01;97721.38;5026777;28;20053;-58
2023/04/08 10:23:09;;;;;;;13.38;9.23;;;;;;;10.43;69.69;97719.50;5031622;28;20661;-57
2023/04/08 10:25:37;;;;;;;12.75;9.38;;;;;;;10.01;71.95;97714.13;5030461;28;20076;-58
2023/04/08 10:28:10;;;;;;;15.77;10.07;;;;;;;10.21;72.98;97718.28;5027332;28;20513;-58
2023/04/08 10:30:46;;;;;;;13.45;9.73;;;;;;;10.18;71.41;97720.66;5013538;28;20046;-58
2023/04/08 10:33:20;;;;;;;15.95;9.02;;;;;;;10.12;71.82;97717.03;4996126;28;20045;-58
2023/04/08 10:35:48;;;;;;;12.90;9.20;;;;;;;10.41;70.45;97719.75;4996249;28;20932;-59
2023/04/08 10:38:16;;;;;;;15.00;9.95;;;;;;;10.44;71.58;97721.16;5013271;28;20513;-59
2023/04/08 10:40:43;;;;;;;16.05;10.50;;;;;;;10.01;71.82;97718.72;5022663;28;20049;-58
2023/04/08 10:43:11;;;;;;;13.13;10.32;;;;;;;9.70;69.74;97713.47;5022810;28;20145;-59
2023/04/08 10:45:41;;;;;;;13.82;9.93;;;;;;;9.68;72.48;97712.91;5028161;28;20069;-58
2023/04/08 10:48:14;;;;;;;13.55;9.43;;;;;;;9.81;73.75;97719.97;5018559;28;20124;-59
2023/04/08 10:50:40;;;;;;;17.15;10.27;;;;;;;9.82;69.25;97713.47;5034966;28;20099;-57
2023/04/08 10:53:07;;;;;;;13.57;9.57;;;;;;;9.95;69.38;97706.16;5032282;28;20048;-58
2023/04/08 10:55:34;;;;;;;13.50;9.27;;;;;;;9.86;68.10;97708.41;5024741;28;20041;-58
2023/04/08 10:58:08;;;;;;;12.52;8.93;;;;;;;10.04;65.10;97714.69;5026036;28;20045;-59
2023/04/08 11:00:37;;;;;;;12.95;10.23;;;;;;;9.82;66.37;97718.88;5030250;28;20602;-58
2023/04/08 11:03:08;;;;;;;14.02;10.43;;;;;;;9.78;67.96;97715.00;5019365;28;20520;-59
2023/04/08 11:05:36;;;;;;;14.65;9.70;;;;;;;9.56;66.40;97712.94;5025455;28;20121;-54
2023/04/08 11:08:04;;;;;;;15.02;9.75;;;;;;;9.67;64.87;97705.03;5033225;28;20049;-57
2023/04/08 11:10:36;;;;;;;13.55;9.82;;;;;;;9.52;64.94;97709.06;5017997;28;20072;-57
2023/04/08 11:13:06;;;;;;;13.38;9.48;;;;;;;9.31;66.23;97708.59;5032487;28;20158;-53
2023/04/08 11:15:34;;;;;;;14.52;9.55;;;;;;;9.34;64.56;97712.72;5019403;28;20662;-54
2023/04/08 11:18:03;;;;;;;13.02;9.10;;;;;;;9.40;66.01;97711.75;5021673;28;20053;-55
2023/04/08 11:20:31;;;;;;;13.05;9.02;;;;;;;9.45;63.53;97719.16;5031389;28;20045;-55
2023/04/08 11:22:57;;;;;;;15.52;9.23;;;;;;;9.62;64.88;97711.97;5027128;28;20093;-55
2023/04/08 11:25:24;;;;;;;13.40;9.90;;;;;;;9.62;63.69;97713.88;5027404;28;20468;-54
2023/04/08 11:27:50;;;;;;;13.10;9.18;;;;;;;9.59;64.13;97714.34;5020918;28;20130;-54
2023/04/08 11:30:17;;;;;;;12.73;9.52;;;;;;;9.60;64.98;97718.69;5031635;28;20048;-56